world map with KHV marked

KHV - Airport

This information may not be accurate or current and is not valid for navigation or flight planning. No warranty of fitness for any purpose is made or implied.

flag of Khabarovskiyflag of Russian Federation (Russia)

Donate via PayPal

Additional information is available on the NEW Great Circle Mapper

Location
City:  Khabarovsk, Khabarovskiy, Russian Federation (Russia)
Name:Novy Airport
ICAO / IATA:UHHH / KHV

Details
Type:Airport (Aerodrome, Airfield)
Use:Public/Civil, Military
Latitude:48°31'41"N (48.528056)
Longitude:135°11'17"E (135.188056)
Elevation:243 ft (74 m)
Runways:2
Longest:13123 × 197 ft (4000 × 60 m)

Time
Timezone:UTC+10 (DST+11)

Weather
METAR:UHHH  041400Z 26006MPS CAVOK M22/M32 Q1016 R23L/090060 NOSIG RMK QFE756/1008
TAF:UHHH  041345Z 0415/0521 25008MPS CAVOK= TAF ULMM 041358Z 0415/0515 12003G08MPS 6000 BKN011 TXM22/0421Z TNM35/0415Z TEMPO 0415/0418 16003G08MPS 3100 -SHSN BR FEW004 BKN013CB TEMPO 0418/0507 15003MPS 1000 -SHSN BR BKN002 BKN011CB TEMPO 0507/0515 15003G08MPS 4000 -SHSN BKN011CB

Related Locations
Nearby:
Farthest:SAVU: 12255 mi / 19723 km
Comodoro Rivadavia [Comodoro Rivadavia UIR], AR

Find:

   beyond  
but within

Other Information
Maps:
Sources:

  

Airport Diagram

Airport diagram for KHV

Airport diagram (OBSOLETE)

 


Great Circle Mapper   Great Circle Mapper
Great Circle Mapper FAQ   Great Circle Mapper FAQ
  Karl's Home Page
KLSē   KLSē Home
   GC on Facebook
Airlines of the World   Airlines of the World
Donate via PayPal


Copyright © 2004-2020, Karl L. Swartz. All rights reserved.
All trademarks mentioned herein belong to their respective owners.

Please see credits for attribution and copyright information.

Karl Swartz <karl@kls2.com>
  Powered by FreeBSD
Valid HTML 4.01!
Labeled with ICRA
hCard Microformat
Geo Microformat